Main page
METAR-TAF:

METAR-TAF

Airports :

Abdelhafid Boussouf Bou Chekif Airport

Tiaret, Algeria

latitude: 35-15N, longitude: 001-26E, elevation: 1127 m

Current weather observation

The report was made 32 minutes ago, at 06:00 UTC
Calm wind
Temperature 23°C
Humidity 25%
Pressure 1021 hPa
Visibility 10 km or more
no clouds below 1500 m and no cumulonimbus

METAR: DAOB 130600Z 00000KT CAVOK 23/02 Q1021

Time: 07:32 (06:32 UTC)

Forecast

The report was made 1 hour and 32 minutes ago, at 05:00 UTC
Forecast valid from 13 at 06 UTC to 14 at 06 UTC
Wind 8 kt from the Southwest
Visibility 10 km or more
no clouds below 1500 m and no cumulonimbus
Becoming
from 13 at 08 UTC to 13 at 12 UTC
Wind 10 kt from the North/Northwest
Probability 40% :
Temporary
from 13 at 14 UTC to 13 at 24 UTC
Few clouds at a height of 3000 ft, Cumulonimbus.

TAF: DAOB 130500Z 1306/1406 22008KT CAVOK BECMG 1308/1312 34010KT PROB40 TEMPO 1314/1324 FEW030CB

Weather observations and forecasts of more than 4000 airports (METAR and TAF reports).

The available stations are represented by yellow and red dots on the map.

Hover mouse over dot to see the name of the station.

Then click to see weather observations and forecasts.

To change the map : click on the green buttons with a black cross to zoom in, on the green button with a dash to zoom out, or on the green arrows for adjacent maps.


METAR-TAF: